Time;durP1;ratioP1;P1;durP2;ratioP2;P2;SDS_P1;SDS_P2;PMS_P1;PMS_P2;Temp;Humidity;BMP_temperature;BMP_pressure;BME280_temperature;BME280_humidity;BME280_pressure;Samples;Min_cycle;Max_cycle;Signal;HPM_P1;HPM_P2
2023/01/10 00:00:48;;;;;;;1.10;0.90;;;5.50;99.90;;;;;;6132480;23;20293;-68
2023/01/10 00:03:15;;;;;;;1.75;1.10;;;5.50;99.90;;;;;;6127303;23;20217;-68
2023/01/10 00:05:42;;;;;;;1.25;1.15;;;5.50;99.90;;;;;;6144606;23;20284;-68
2023/01/10 00:08:14;;;;;;;1.40;1.30;;;5.50;99.90;;;;;;6147929;23;20377;-68
2023/01/10 00:10:43;;;;;;;1.00;0.90;;;5.50;99.90;;;;;;6147032;23;20623;-68
2023/01/10 00:13:22;;;;;;;1.35;1.20;;;5.50;99.90;;;;;;6140837;23;20282;-68
2023/01/10 00:15:50;;;;;;;2.20;2.10;;;5.50;99.90;;;;;;6131173;23;20202;-68
2023/01/10 00:18:17;;;;;;;1.58;1.48;;;5.40;99.90;;;;;;6146741;23;20549;-68
2023/01/10 00:20:45;;;;;;;2.35;1.52;;;5.50;99.90;;;;;;6142717;23;20215;-68
2023/01/10 00:23:12;;;;;;;1.85;1.75;;;5.40;99.90;;;;;;6148259;23;20593;-68
2023/01/10 00:25:41;;;;;;;2.15;1.98;;;5.40;99.90;;;;;;6132785;23;20301;-69
2023/01/10 00:28:18;;;;;;;2.58;2.38;;;5.40;99.90;;;;;;6148687;23;20187;-68
2023/01/10 00:30:53;;;;;;;2.60;2.50;;;5.50;99.90;;;;;;6140551;23;20233;-68
2023/01/10 00:33:21;;;;;;;2.70;2.50;;;5.50;99.90;;;;;;6148578;23;20193;-68
2023/01/10 00:35:48;;;;;;;2.72;2.50;;;5.40;99.90;;;;;;6131463;23;20663;-68
2023/01/10 00:38:16;;;;;;;2.85;2.50;;;5.50;99.90;;;;;;6147838;23;20191;-68
2023/01/10 00:40:42;;;;;;;2.65;2.53;;;5.40;99.90;;;;;;6146613;23;20210;-68
2023/01/10 00:45:56;;;;;;;2.78;2.58;;;5.50;99.90;;;;;;6145073;23;20214;-68
2023/01/10 00:48:24;;;;;;;2.50;2.30;;;5.50;99.90;;;;;;6148897;23;20198;-68
2023/01/10 00:50:51;;;;;;;2.40;2.20;;;5.50;99.90;;;;;;6140114;23;20273;-68
2023/01/10 00:53:18;;;;;;;3.63;3.13;;;5.50;99.90;;;;;;6127147;23;20269;-68
2023/01/10 00:55:45;;;;;;;2.33;2.20;;;5.60;99.90;;;;;;6144275;23;20597;-69
2023/01/10 00:58:15;;;;;;;2.47;2.28;;;5.60;99.90;;;;;;6145056;23;20194;-68
2023/01/10 01:00:45;;;;;;;2.85;2.65;;;5.60;99.90;;;;;;6146259;23;20285;-68
2023/01/10 01:03:13;;;;;;;2.63;2.42;;;5.60;99.90;;;;;;6131088;23;20191;-68
2023/01/10 01:05:40;;;;;;;2.50;2.30;;;5.70;99.90;;;;;;6137543;23;20240;-68
2023/01/10 01:08:07;;;;;;;2.65;2.42;;;5.60;99.90;;;;;;6133173;23;20686;-68
2023/01/10 01:10:35;;;;;;;4.03;3.15;;;5.60;99.90;;;;;;6128997;23;20218;-68
2023/01/10 01:13:07;;;;;;;2.50;2.40;;;5.60;99.90;;;;;;6145281;23;20596;-66
2023/01/10 01:15:36;;;;;;;3.63;3.35;;;5.60;99.90;;;;;;6140526;23;20190;-68
2023/01/10 01:18:04;;;;;;;2.95;2.70;;;5.60;99.90;;;;;;6140004;23;20683;-68
2023/01/10 01:20:31;;;;;;;3.22;2.70;;;5.60;99.90;;;;;;6123892;23;20211;-68
2023/01/10 01:22:59;;;;;;;2.80;2.60;;;5.60;99.90;;;;;;6144380;23;20202;-68
2023/01/10 01:25:26;;;;;;;2.90;2.70;;;5.60;99.90;;;;;;6147812;23;20663;-68
2023/01/10 01:27:53;;;;;;;3.13;2.83;;;5.50;99.90;;;;;;6129653;23;20253;-68
2023/01/10 01:30:21;;;;;;;2.97;2.72;;;5.60;99.90;;;;;;6130692;23;20191;-68
2023/01/10 01:32:49;;;;;;;2.30;2.10;;;5.50;99.90;;;;;;6134769;23;20569;-68
2023/01/10 01:35:16;;;;;;;2.35;2.15;;;5.50;99.90;;;;;;6120333;23;20608;-68
2023/01/10 01:37:44;;;;;;;1.98;1.88;;;5.60;99.90;;;;;;6121307;23;20282;-66
2023/01/10 01:40:14;;;;;;;2.40;2.20;;;5.60;99.90;;;;;;6127081;23;20296;-67
2023/01/10 01:42:41;;;;;;;1.88;1.75;;;5.60;99.90;;;;;;6133453;23;20195;-67
2023/01/10 01:45:35;;;;;;;2.10;1.85;;;5.60;99.90;;;;;;6142217;23;20284;-67
2023/01/10 01:48:09;;;;;;;1.98;1.60;;;5.60;99.90;;;;;;6140855;23;20272;-67
2023/01/10 01:50:40;;;;;;;1.80;1.70;;;5.60;99.90;;;;;;6146397;23;20297;-67
2023/01/10 01:53:11;;;;;;;1.50;1.40;;;5.60;99.90;;;;;;6145276;23;20206;-67
2023/01/10 01:55:39;;;;;;;1.60;1.50;;;5.70;99.90;;;;;;6147319;23;20269;-67
2023/01/10 01:58:13;;;;;;;1.75;1.30;;;5.70;99.90;;;;;;6148028;23;20199;-67
2023/01/10 02:00:40;;;;;;;2.33;1.63;;;5.70;99.90;;;;;;6147273;23;20301;-66
2023/01/10 02:03:09;;;;;;;1.65;1.30;;;5.70;99.90;;;;;;6147591;23;20329;-67
2023/01/10 02:05:38;;;;;;;1.58;1.38;;;5.60;99.90;;;;;;6143959;23;20240;-67
2023/01/10 02:08:06;;;;;;;1.50;1.40;;;5.60;99.90;;;;;;6138919;23;20222;-67
2023/01/10 02:10:40;;;;;;;1.50;1.40;;;5.60;99.90;;;;;;6146664;23;20263;-68
2023/01/10 02:13:09;;;;;;;1.60;1.50;;;5.60;99.90;;;;;;6127392;23;20265;-66
2023/01/10 02:15:36;;;;;;;1.55;1.42;;;5.60;99.90;;;;;;6143325;23;20321;-67
2023/01/10 02:18:04;;;;;;;1.48;1.38;;;5.60;99.90;;;;;;6137436;23;20194;-66
2023/01/10 02:20:43;;;;;;;1.40;1.30;;;5.50;99.90;;;;;;6147732;23;20268;-67
2023/01/10 02:23:41;;;;;;;1.90;1.80;;;5.50;99.90;;;;;;6144039;23;20218;-67
2023/01/10 02:26:38;;;;;;;1.58;1.38;;;5.50;99.90;;;;;;6141270;23;20650;-67
2023/01/10 02:29:23;;;;;;;2.22;2.03;;;5.50;99.90;;;;;;6148036;23;20217;-67
2023/01/10 02:32:17;;;;;;;2.13;1.92;;;5.50;99.90;;;;;;6137857;23;20558;-67
2023/01/10 02:34:58;;;;;;;2.22;1.85;;;5.50;99.90;;;;;;6124914;23;20268;-67
2023/01/10 02:37:35;;;;;;;2.22;2.00;;;5.40;99.90;;;;;;6147043;23;20197;-67
2023/01/10 02:40:07;;;;;;;2.35;2.15;;;5.40;99.90;;;;;;6141501;23;20191;-67
2023/01/10 02:42:42;;;;;;;3.25;2.70;;;5.40;99.90;;;;;;6143744;23;20202;-67
2023/01/10 02:45:14;;;;;;;2.20;2.00;;;5.40;99.90;;;;;;6146691;23;20649;-67
2023/01/10 02:47:43;;;;;;;2.53;2.17;;;5.40;99.90;;;;;;6147305;23;20246;-67
2023/01/10 02:50:31;;;;;;;2.10;1.90;;;5.40;99.90;;;;;;6147012;23;20274;-67
2023/01/10 02:53:02;;;;;;;2.10;2.00;;;5.40;99.90;;;;;;6145388;23;20191;-67
2023/01/10 02:55:40;;;;;;;2.10;2.00;;;5.40;99.90;;;;;;6142033;23;20201;-67
2023/01/10 02:58:19;;;;;;;3.40;2.28;;;5.40;99.90;;;;;;6135924;23;20223;-66
2023/01/10 03:00:50;;;;;;;2.10;1.90;;;5.40;99.90;;;;;;6137705;23;20263;-67
2023/01/10 03:03:35;;;;;;;2.10;1.67;;;5.40;99.90;;;;;;6124809;23;20658;-67
2023/01/10 03:06:16;;;;;;;2.10;1.50;;;5.30;99.90;;;;;;6138940;23;20227;-67
2023/01/10 03:08:50;;;;;;;2.55;1.50;;;5.30;99.90;;;;;;6136815;23;20678;-66
2023/01/10 03:11:38;;;;;;;4.82;2.00;;;5.30;99.90;;;;;;6133688;23;20297;-67
2023/01/10 03:14:10;;;;;;;2.35;1.65;;;5.30;99.90;;;;;;6131566;23;20572;-66
2023/01/10 03:16:40;;;;;;;3.25;2.03;;;5.30;99.90;;;;;;6138453;23;20550;-67
2023/01/10 03:19:12;;;;;;;3.90;3.00;;;5.20;99.90;;;;;;6136383;23;20194;-67
2023/01/10 03:21:41;;;;;;;4.50;2.00;;;5.20;99.90;;;;;;6131712;23;20297;-67
2023/01/10 03:24:16;;;;;;;5.50;2.47;;;5.20;99.90;;;;;;6142258;23;20190;-68
2023/01/10 03:26:49;;;;;;;4.10;2.22;;;5.30;99.90;;;;;;6135680;23;20284;-67
2023/01/10 03:29:24;;;;;;;3.58;1.85;;;5.30;99.90;;;;;;6145030;23;20235;-67
2023/01/10 03:31:56;;;;;;;2.38;2.17;;;5.30;99.90;;;;;;6126768;23;20211;-67
2023/01/10 03:34:26;;;;;;;2.80;2.35;;;5.20;99.90;;;;;;6122053;23;20191;-67
2023/01/10 03:37:00;;;;;;;3.65;1.95;;;5.20;99.90;;;;;;6134149;23;20210;-67
2023/01/10 03:39:34;;;;;;;3.60;2.92;;;5.20;99.90;;;;;;6149059;23;20194;-67
2023/01/10 03:42:07;;;;;;;2.83;2.40;;;5.20;99.90;;;;;;6131747;23;20211;-67
2023/01/10 03:44:44;;;;;;;3.55;2.17;;;5.20;99.90;;;;;;6143046;23;20707;-66
2023/01/10 03:47:17;;;;;;;4.25;2.60;;;5.20;99.90;;;;;;6143527;23;20271;-66
2023/01/10 03:49:49;;;;;;;2.40;2.20;;;5.20;99.90;;;;;;6132516;23;20199;-67
2023/01/10 03:52:18;;;;;;;2.53;2.25;;;5.20;99.90;;;;;;6123666;23;20549;-67
2023/01/10 03:54:47;;;;;;;3.05;2.40;;;5.20;99.90;;;;;;6121501;23;20255;-67
2023/01/10 03:57:20;;;;;;;2.35;2.15;;;5.20;99.90;;;;;;6138572;23;20211;-66
2023/01/10 03:59:48;;;;;;;5.13;2.50;;;5.20;99.90;;;;;;6143296;23;20186;-67
2023/01/10 04:02:15;;;;;;;3.22;2.72;;;5.20;99.90;;;;;;6132032;23;20261;-68
2023/01/10 04:04:42;;;;;;;2.95;2.50;;;5.20;99.90;;;;;;6132331;23;20661;-67
2023/01/10 04:07:10;;;;;;;4.43;2.72;;;5.20;99.90;;;;;;6137469;23;20286;-67
2023/01/10 04:09:37;;;;;;;4.68;2.83;;;5.10;99.90;;;;;;6138040;23;20595;-67
2023/01/10 04:12:05;;;;;;;3.88;2.40;;;5.10;99.90;;;;;;6135601;23;20207;-67
2023/01/10 04:14:32;;;;;;;2.55;2.10;;;5.10;99.90;;;;;;6148784;23;20190;-67
2023/01/10 04:16:59;;;;;;;2.40;2.15;;;5.00;99.90;;;;;;6145939;23;21595;-67
2023/01/10 04:19:26;;;;;;;2.55;2.35;;;5.00;99.90;;;;;;6147203;23;20187;-67
2023/01/10 04:21:53;;;;;;;2.88;2.45;;;5.00;99.90;;;;;;6126999;23;20213;-67
2023/01/10 04:24:22;;;;;;;4.05;2.63;;;5.00;99.90;;;;;;6137694;23;20191;-67
2023/01/10 04:26:49;;;;;;;2.65;2.42;;;5.00;99.90;;;;;;6143852;23;20269;-67
2023/01/10 04:29:16;;;;;;;2.60;2.38;;;5.00;99.90;;;;;;6126921;23;20225;-68
2023/01/10 04:31:43;;;;;;;3.10;2.70;;;5.00;99.90;;;;;;6140315;23;20690;-67
2023/01/10 04:34:10;;;;;;;2.75;2.25;;;5.00;99.90;;;;;;6131917;23;20279;-67
2023/01/10 04:36:37;;;;;;;4.70;2.80;;;5.00;99.90;;;;;;6137496;23;20842;-67
2023/01/10 04:39:05;;;;;;;3.38;2.60;;;4.90;99.90;;;;;;6147739;23;20187;-67
2023/01/10 04:41:33;;;;;;;4.45;3.10;;;4.90;99.90;;;;;;6132699;23;20764;-67
2023/01/10 04:44:00;;;;;;;3.42;3.03;;;4.90;99.90;;;;;;6125098;23;20222;-67
2023/01/10 04:46:27;;;;;;;5.32;3.00;;;4.80;99.90;;;;;;6124315;23;20660;-67
2023/01/10 04:48:54;;;;;;;5.65;3.13;;;4.80;99.90;;;;;;6129097;23;20250;-67
2023/01/10 04:51:22;;;;;;;5.88;3.05;;;4.80;99.90;;;;;;6135600;23;20213;-67
2023/01/10 04:53:48;;;;;;;7.70;3.20;;;4.80;99.90;;;;;;6148368;23;20504;-67
2023/01/10 04:56:18;;;;;;;4.43;3.53;;;4.80;99.90;;;;;;6144574;23;20210;-67
2023/01/10 04:58:47;;;;;;;8.75;3.20;;;4.80;99.90;;;;;;6121930;23;20245;-67
2023/01/10 05:01:16;;;;;;;6.68;2.92;;;4.80;99.90;;;;;;6133201;23;20282;-67
2023/01/10 05:03:43;;;;;;;7.82;2.90;;;4.80;99.90;;;;;;6149795;23;20221;-67
2023/01/10 05:06:10;;;;;;;5.70;2.90;;;4.80;99.90;;;;;;6149324;23;20270;-67
2023/01/10 05:08:37;;;;;;;5.07;3.42;;;4.90;99.90;;;;;;6146952;23;20241;-67
2023/01/10 05:11:04;;;;;;;7.72;3.60;;;4.90;99.90;;;;;;6145861;23;20211;-67
2023/01/10 05:13:32;;;;;;;11.32;3.20;;;4.90;99.90;;;;;;6141953;23;20198;-67
2023/01/10 05:16:00;;;;;;;5.15;3.60;;;4.90;99.90;;;;;;6126079;23;20187;-67
2023/01/10 05:18:29;;;;;;;4.75;2.95;;;5.00;99.90;;;;;;6138659;23;20187;-67
2023/01/10 05:21:00;;;;;;;7.60;2.70;;;5.00;99.90;;;;;;6138083;23;20731;-67
2023/01/10 05:23:27;;;;;;;6.00;2.60;;;5.00;99.90;;;;;;6145414;23;20225;-67
2023/01/10 05:25:54;;;;;;;6.75;3.15;;;5.10;99.90;;;;;;6137289;23;20585;-67
2023/01/10 05:28:21;;;;;;;8.35;3.47;;;5.10;99.90;;;;;;6148105;23;20222;-67
2023/01/10 05:30:48;;;;;;;8.70;3.05;;;5.10;99.90;;;;;;6132256;23;20245;-67
2023/01/10 05:33:16;;;;;;;7.00;2.70;;;5.20;99.90;;;;;;6120221;23;20538;-67
2023/01/10 05:35:43;;;;;;;9.43;2.72;;;5.20;99.90;;;;;;6120470;23;20176;-67
2023/01/10 05:38:10;;;;;;;7.65;2.72;;;5.20;99.90;;;;;;6144038;23;20277;-67
2023/01/10 05:40:37;;;;;;;9.02;3.10;;;5.20;99.90;;;;;;6145678;23;20293;-67
2023/01/10 05:43:04;;;;;;;8.30;3.55;;;5.20;99.90;;;;;;6114328;23;20596;-68
2023/01/10 05:45:31;;;;;;;11.30;3.38;;;5.20;99.90;;;;;;6129556;23;20179;-66
2023/01/10 05:47:58;;;;;;;7.82;3.25;;;5.20;99.90;;;;;;6132805;23;20282;-66
2023/01/10 05:50:26;;;;;;;6.90;3.28;;;5.20;99.90;;;;;;6138876;23;20212;-67
2023/01/10 05:52:53;;;;;;;6.50;2.60;;;5.30;99.90;;;;;;6137038;23;20277;-67
2023/01/10 05:55:20;;;;;;;5.20;2.25;;;5.30;99.90;;;;;;6132844;23;20285;-67
2023/01/10 05:57:47;;;;;;;8.02;2.50;;;5.30;99.90;;;;;;6130029;23;20186;-66
2023/01/10 06:00:16;;;;;;;6.47;3.45;;;5.40;99.90;;;;;;6129053;23;20294;-67
2023/01/10 06:02:43;;;;;;;7.80;3.13;;;5.40;99.90;;;;;;6133185;23;20214;-67
2023/01/10 06:05:10;;;;;;;7.07;2.70;;;5.40;99.90;;;;;;6133225;23;20270;-67
2023/01/10 06:07:38;;;;;;;7.88;2.63;;;5.40;99.90;;;;;;6135146;23;20227;-67
2023/01/10 06:10:06;;;;;;;7.57;2.80;;;5.40;99.90;;;;;;6137742;23;20207;-67
2023/01/10 06:12:33;;;;;;;9.65;3.13;;;5.30;99.90;;;;;;6132386;23;20213;-67
2023/01/10 06:15:00;;;;;;;7.78;2.83;;;5.30;99.90;;;;;;6142675;23;20652;-67
2023/01/10 06:17:28;;;;;;;6.10;2.45;;;5.40;99.90;;;;;;6141247;23;20193;-67
2023/01/10 06:19:55;;;;;;;8.35;2.85;;;5.30;99.90;;;;;;6141849;23;20187;-67
2023/01/10 06:22:22;;;;;;;7.80;2.40;;;5.30;99.90;;;;;;6130798;23;20269;-67
2023/01/10 06:24:50;;;;;;;6.22;2.33;;;5.30;99.90;;;;;;6140374;23;20194;-67
2023/01/10 06:27:17;;;;;;;6.22;2.20;;;5.30;99.90;;;;;;6130866;23;20269;-67
2023/01/10 06:29:44;;;;;;;9.48;2.95;;;5.20;99.90;;;;;;6134923;23;20205;-67
2023/01/10 06:32:11;;;;;;;8.55;2.38;;;5.20;99.90;;;;;;6133429;23;20602;-67
2023/01/10 06:34:38;;;;;;;11.40;3.10;;;5.30;99.90;;;;;;6128122;23;20179;-67
2023/01/10 06:37:07;;;;;;;6.80;2.50;;;5.20;99.90;;;;;;6135523;23;20183;-67
2023/01/10 06:39:34;;;;;;;6.07;2.00;;;5.20;99.90;;;;;;6139704;23;20194;-67
2023/01/10 06:42:02;;;;;;;6.60;2.30;;;5.20;99.90;;;;;;6136775;23;20183;-67
2023/01/10 06:44:29;;;;;;;7.10;2.50;;;5.20;99.90;;;;;;6132677;23;20270;-67
2023/01/10 06:46:56;;;;;;;5.88;1.90;;;5.30;99.90;;;;;;6136339;23;20261;-67
2023/01/10 06:49:23;;;;;;;6.70;2.70;;;5.30;99.90;;;;;;6133815;23;20218;-67
2023/01/10 06:51:50;;;;;;;8.38;2.65;;;5.20;99.90;;;;;;6129699;23;20298;-67
2023/01/10 06:54:17;;;;;;;12.05;2.35;;;5.20;99.90;;;;;;6143596;23;20187;-67
2023/01/10 06:56:44;;;;;;;6.47;1.98;;;5.20;99.90;;;;;;6139430;23;20524;-67
2023/01/10 06:59:12;;;;;;;9.10;2.60;;;5.20;99.90;;;;;;6143645;23;20248;-67
2023/01/10 07:01:39;;;;;;;7.05;2.78;;;5.10;99.90;;;;;;6135683;23;20216;-68
2023/01/10 07:04:06;;;;;;;6.18;2.17;;;5.20;99.90;;;;;;6123981;23;20187;-66
2023/01/10 07:06:36;;;;;;;6.15;2.10;;;5.20;99.90;;;;;;6140281;23;20313;-66
2023/01/10 07:09:04;;;;;;;10.55;2.90;;;5.20;99.90;;;;;;6130457;23;20211;-66
2023/01/10 07:11:32;;;;;;;8.57;2.72;;;5.30;99.90;;;;;;6139231;23;20247;-67
2023/01/10 07:14:00;;;;;;;7.68;2.40;;;5.20;99.90;;;;;;6133779;23;20191;-66
2023/01/10 07:16:28;;;;;;;5.75;2.30;;;5.30;99.90;;;;;;6137513;23;20214;-66
2023/01/10 07:18:56;;;;;;;8.30;2.22;;;5.30;99.90;;;;;;6136638;23;20620;-67
2023/01/10 07:21:23;;;;;;;6.63;2.50;;;5.30;99.90;;;;;;6135156;23;20202;-66
2023/01/10 07:23:50;;;;;;;6.75;2.20;;;5.30;99.90;;;;;;6139491;23;20243;-66
2023/01/10 07:26:18;;;;;;;7.93;2.80;;;5.30;99.90;;;;;;6143423;23;20186;-66
2023/01/10 07:28:49;;;;;;;8.02;2.80;;;5.30;99.90;;;;;;6146436;23;20293;-67
2023/01/10 07:31:18;;;;;;;9.13;3.20;;;5.30;99.90;;;;;;6140477;23;20713;-67
2023/01/10 07:33:46;;;;;;;9.25;2.60;;;5.40;99.90;;;;;;6140920;23;20235;-67
2023/01/10 07:36:13;;;;;;;7.88;2.72;;;5.40;99.90;;;;;;6134763;23;20241;-67
2023/01/10 07:38:40;;;;;;;7.78;2.38;;;5.30;99.90;;;;;;6142685;23;20547;-67
2023/01/10 07:41:08;;;;;;;9.45;3.75;;;5.40;99.90;;;;;;6140581;23;20742;-67
2023/01/10 07:43:35;;;;;;;10.88;3.00;;;5.40;99.90;;;;;;6149753;23;20190;-67
2023/01/10 07:46:03;;;;;;;8.00;2.63;;;5.40;99.90;;;;;;6137363;23;20260;-67
2023/01/10 07:48:31;;;;;;;7.53;2.95;;;5.30;99.90;;;;;;6134360;23;20248;-67
2023/01/10 07:51:00;;;;;;;7.63;2.80;;;5.30;99.90;;;;;;6149223;23;20207;-67
2023/01/10 07:53:29;;;;;;;6.63;2.50;;;5.30;99.90;;;;;;6147484;23;20215;-67
2023/01/10 07:55:59;;;;;;;6.80;2.40;;;5.30;99.90;;;;;;6138979;23;20214;-67
2023/01/10 07:58:26;;;;;;;9.50;2.55;;;5.30;99.90;;;;;;6142457;23;20232;-67
2023/01/10 08:00:57;;;;;;;8.18;2.60;;;5.50;99.90;;;;;;6137711;23;20237;-67
2023/01/10 08:03:24;;;;;;;6.78;2.50;;;5.30;99.90;;;;;;6138508;23;20631;-67
2023/01/10 08:05:59;;;;;;;6.95;2.83;;;5.40;99.90;;;;;;6132583;23;20212;-67
2023/01/10 08:08:27;;;;;;;7.97;3.00;;;5.40;99.90;;;;;;6137187;23;20665;-67
2023/01/10 08:10:53;;;;;;;9.80;3.50;;;5.40;99.90;;;;;;6149830;23;20620;-67
2023/01/10 08:13:20;;;;;;;9.55;3.05;;;5.40;99.90;;;;;;6137524;23;20183;-67
2023/01/10 08:15:50;;;;;;;8.32;3.00;;;5.50;99.90;;;;;;6136007;23;20218;-67
2023/01/10 08:18:17;;;;;;;7.15;2.70;;;5.50;99.90;;;;;;6138077;23;20196;-68
2023/01/10 08:20:46;;;;;;;9.00;3.15;;;5.50;99.90;;;;;;6138145;23;20238;-68
2023/01/10 08:23:15;;;;;;;10.88;2.85;;;5.50;99.90;;;;;;6140901;23;20267;-67
2023/01/10 08:25:42;;;;;;;9.90;3.10;;;5.50;99.90;;;;;;6144001;23;20201;-67
2023/01/10 08:28:09;;;;;;;7.30;3.35;;;5.60;99.90;;;;;;6146750;23;20365;-67
2023/01/10 08:30:37;;;;;;;7.43;2.80;;;5.60;99.90;;;;;;6144754;23;20283;-67
2023/01/10 08:33:04;;;;;;;7.53;3.38;;;5.70;99.90;;;;;;6135380;23;20279;-67
2023/01/10 08:35:31;;;;;;;7.35;3.28;;;5.70;99.90;;;;;;6138148;23;20804;-67
2023/01/10 08:37:59;;;;;;;7.63;3.17;;;5.70;99.90;;;;;;6136051;23;20241;-67
2023/01/10 08:40:27;;;;;;;9.95;3.00;;;5.80;99.90;;;;;;6141653;23;20204;-68
2023/01/10 08:42:59;;;;;;;10.07;3.53;;;5.80;99.90;;;;;;6135290;23;20186;-68
2023/01/10 08:45:26;;;;;;;9.82;2.88;;;5.80;99.90;;;;;;6133922;23;21403;-68
2023/01/10 08:47:53;;;;;;;8.10;3.25;;;5.80;99.90;;;;;;6146445;23;20542;-68
2023/01/10 08:50:20;;;;;;;6.85;3.10;;;5.80;99.90;;;;;;6134156;23;20226;-68
2023/01/10 08:52:48;;;;;;;7.40;2.95;;;5.80;99.90;;;;;;6132006;23;20190;-68
2023/01/10 08:55:15;;;;;;;10.02;3.22;;;5.90;99.90;;;;;;6135377;23;20271;-68
2023/01/10 08:57:43;;;;;;;9.40;3.25;;;5.90;99.90;;;;;;6136216;23;20819;-68
2023/01/10 09:00:12;;;;;;;7.45;3.67;;;5.90;99.90;;;;;;6133101;23;20213;-68
2023/01/10 09:02:40;;;;;;;9.65;3.25;;;5.90;99.90;;;;;;6136935;23;20187;-68
2023/01/10 09:05:08;;;;;;;9.25;3.35;;;6.00;99.90;;;;;;6127544;23;20265;-68
2023/01/10 09:07:35;;;;;;;11.60;3.53;;;6.00;99.90;;;;;;6141217;23;20183;-68
2023/01/10 09:10:02;;;;;;;8.88;3.58;;;6.00;99.90;;;;;;6137981;23;20214;-68
2023/01/10 09:15:15;;;;;;;4.97;2.80;;;6.00;99.90;;;;;;6144909;23;20258;-67
2023/01/10 09:17:43;;;;;;;5.97;3.03;;;6.00;99.90;;;;;;6144561;23;20679;-68
2023/01/10 09:20:11;;;;;;;6.85;3.35;;;6.00;99.90;;;;;;6130488;23;20235;-67
2023/01/10 09:22:39;;;;;;;7.65;2.85;;;6.00;99.90;;;;;;6136885;23;20183;-68
2023/01/10 09:25:07;;;;;;;6.25;3.25;;;6.00;99.90;;;;;;6137781;23;20184;-67
2023/01/10 09:27:34;;;;;;;8.00;3.58;;;6.00;99.90;;;;;;6136639;23;20245;-68
2023/01/10 09:30:01;;;;;;;9.48;3.20;;;6.00;99.90;;;;;;6140977;23;20214;-68
2023/01/10 09:32:29;;;;;;;8.30;3.22;;;6.00;99.90;;;;;;6137435;23;20230;-68
2023/01/10 09:34:56;;;;;;;6.13;2.55;;;6.00;99.90;;;;;;6140132;23;20258;-68
2023/01/10 09:37:23;;;;;;;5.15;2.50;;;6.00;99.90;;;;;;6133798;23;20187;-67
2023/01/10 09:39:51;;;;;;;11.07;2.95;;;6.00;99.90;;;;;;6137793;23;20267;-67
2023/01/10 09:42:50;;;;;;;8.02;2.88;;;6.00;99.90;;;;;;6143199;23;20183;-68
2023/01/10 09:45:25;;;;;;;5.45;2.53;;;6.00;99.90;;;;;;6142447;23;20183;-67
2023/01/10 09:48:01;;;;;;;11.25;2.90;;;6.00;99.90;;;;;;6141596;23;20258;-67
2023/01/10 09:50:35;;;;;;;6.65;2.78;;;6.00;99.90;;;;;;6140557;23;20214;-68
2023/01/10 09:53:08;;;;;;;5.75;2.65;;;6.10;99.90;;;;;;6135386;23;20179;-67
2023/01/10 09:55:38;;;;;;;6.38;2.33;;;6.10;99.90;;;;;;6143619;23;20634;-67
2023/01/10 09:58:11;;;;;;;5.10;2.88;;;6.10;99.90;;;;;;6131339;23;20215;-67
2023/01/10 10:00:42;;;;;;;5.65;2.60;;;6.00;99.90;;;;;;6137929;23;20678;-67
2023/01/10 10:03:21;;;;;;;10.07;2.53;;;6.10;99.90;;;;;;6137977;23;20586;-68
2023/01/10 10:05:49;;;;;;;4.97;2.30;;;6.00;99.90;;;;;;6135601;23;20183;-68
2023/01/10 10:08:18;;;;;;;6.93;3.58;;;6.10;99.90;;;;;;6148001;23;20194;-68
2023/01/10 10:10:59;;;;;;;6.72;2.50;;;6.10;99.90;;;;;;6146979;23;20677;-68
2023/01/10 10:13:39;;;;;;;4.93;2.30;;;6.20;99.90;;;;;;6128276;23;20189;-68
2023/01/10 10:16:14;;;;;;;4.60;2.03;;;6.20;99.90;;;;;;6133456;23;20181;-67
2023/01/10 10:18:54;;;;;;;5.50;1.90;;;6.20;99.90;;;;;;6136025;23;20262;-67
2023/01/10 10:21:28;;;;;;;3.60;1.85;;;6.20;99.90;;;;;;6139496;23;20243;-67
2023/01/10 10:24:10;;;;;;;7.72;2.00;;;6.20;99.90;;;;;;6142353;23;20226;-68
2023/01/10 10:26:44;;;;;;;5.00;1.88;;;6.20;99.90;;;;;;6124509;23;20208;-68
2023/01/10 10:29:28;;;;;;;5.22;2.30;;;6.20;99.90;;;;;;6126474;23;20542;-68
2023/01/10 10:32:11;;;;;;;5.03;1.77;;;6.20;99.90;;;;;;6136236;23;20187;-67
2023/01/10 10:34:45;;;;;;;4.45;2.13;;;6.20;99.90;;;;;;6143176;23;20187;-67
2023/01/10 10:37:19;;;;;;;3.95;1.67;;;6.30;99.90;;;;;;6137271;23;20274;-67
2023/01/10 10:39:52;;;;;;;5.68;2.20;;;6.30;99.90;;;;;;6139538;23;20573;-68
2023/01/10 10:42:20;;;;;;;4.75;2.50;;;6.40;99.90;;;;;;6139691;23;20265;-67
2023/01/10 10:44:52;;;;;;;3.38;1.83;;;6.40;99.90;;;;;;6144491;23;20190;-67
2023/01/10 10:47:21;;;;;;;5.75;2.10;;;6.40;99.90;;;;;;6143511;23;20283;-67
2023/01/10 10:49:58;;;;;;;4.93;1.83;;;6.40;99.90;;;;;;6137252;23;20293;-67
2023/01/10 10:52:27;;;;;;;7.55;2.50;;;6.50;99.90;;;;;;6135939;23;20178;-67
2023/01/10 10:54:55;;;;;;;5.25;1.80;;;6.60;99.90;;;;;;6144493;23;20183;-67
2023/01/10 10:57:26;;;;;;;2.88;1.58;;;6.70;99.90;;;;;;6134272;23;20182;-67
2023/01/10 10:59:55;;;;;;;4.78;1.80;;;6.70;99.90;;;;;;6139821;23;20609;-68
2023/01/10 11:02:26;;;;;;;4.65;1.70;;;6.70;99.90;;;;;;6148873;23;20198;-67
2023/01/10 11:04:57;;;;;;;5.05;2.00;;;6.60;99.90;;;;;;6142144;23;20185;-67
2023/01/10 11:07:28;;;;;;;6.63;2.60;;;6.60;99.90;;;;;;6133415;23;20493;-68
2023/01/10 11:10:00;;;;;;;3.72;2.63;;;6.70;99.90;;;;;;6141202;23;20218;-68
2023/01/10 11:12:31;;;;;;;5.68;2.60;;;6.70;99.90;;;;;;6141374;23;20532;-68
2023/01/10 11:15:00;;;;;;;6.53;2.75;;;6.70;99.90;;;;;;6139483;23;20210;-68
2023/01/10 11:17:30;;;;;;;8.05;3.75;;;6.80;99.90;;;;;;6135377;23;20272;-68
2023/01/10 11:20:00;;;;;;;7.65;2.30;;;6.80;99.90;;;;;;6140849;23;20202;-68
2023/01/10 11:22:29;;;;;;;3.35;1.88;;;6.80;99.90;;;;;;6133313;23;20262;-68
2023/01/10 11:24:59;;;;;;;7.75;2.15;;;6.80;99.90;;;;;;6128429;23;20210;-67
2023/01/10 11:27:28;;;;;;;3.20;1.33;;;6.90;99.90;;;;;;6130246;23;20667;-68
2023/01/10 11:29:58;;;;;;;3.72;1.80;;;6.90;99.90;;;;;;6138722;23;20666;-67
2023/01/10 11:32:34;;;;;;;4.25;2.28;;;6.80;99.90;;;;;;6140499;23;20289;-67
2023/01/10 11:35:07;;;;;;;3.88;1.42;;;6.80;99.90;;;;;;6136930;23;20195;-67
2023/01/10 11:37:36;;;;;;;2.65;1.55;;;6.80;99.90;;;;;;6138891;23;20183;-69
2023/01/10 11:40:22;;;;;;;3.92;1.95;;;6.70;99.90;;;;;;6138321;23;20285;-67
2023/01/10 11:42:49;;;;;;;4.60;1.88;;;6.70;99.90;;;;;;6135277;23;20236;-67
2023/01/10 11:45:24;;;;;;;4.53;1.98;;;6.80;99.90;;;;;;6141174;23;20643;-66
2023/01/10 11:47:54;;;;;;;2.00;1.38;;;6.80;99.90;;;;;;6141838;23;20214;-66
2023/01/10 11:50:26;;;;;;;4.25;1.70;;;6.70;99.90;;;;;;6144802;23;20222;-66
2023/01/10 11:52:54;;;;;;;5.10;2.05;;;6.70;99.90;;;;;;6139416;23;20270;-67
2023/01/10 11:55:24;;;;;;;4.70;1.80;;;6.70;99.90;;;;;;6136317;23;20608;-67
2023/01/10 11:57:58;;;;;;;6.40;2.00;;;6.80;99.90;;;;;;6129247;23;20180;-68
2023/01/10 12:00:33;;;;;;;6.32;2.53;;;6.80;99.90;;;;;;6129763;23;20221;-67
2023/01/10 12:03:01;;;;;;;5.07;2.50;;;6.90;99.90;;;;;;6139908;23;20236;-68
2023/01/10 12:05:30;;;;;;;2.88;1.75;;;7.10;99.90;;;;;;6124677;23;20192;-69
2023/01/10 12:07:58;;;;;;;6.07;2.50;;;7.30;99.90;;;;;;6132230;23;20187;-69
2023/01/10 12:10:27;;;;;;;7.97;2.30;;;7.50;99.90;;;;;;6143321;23;20221;-69
2023/01/10 12:12:57;;;;;;;4.53;1.67;;;8.10;99.90;;;;;;6139509;23;20179;-68
2023/01/10 12:15:27;;;;;;;3.63;1.58;;;8.90;99.90;;;;;;6123371;23;20221;-69
2023/01/10 12:17:57;;;;;;;5.32;1.83;;;9.40;99.90;;;;;;6139959;23;20666;-67
2023/01/10 12:20:27;;;;;;;3.90;1.58;;;9.80;99.90;;;;;;6119967;23;20235;-70
2023/01/10 12:23:00;;;;;;;3.15;2.35;;;10.00;99.90;;;;;;6140251;23;20183;-68
2023/01/10 12:25:34;;;;;;;4.47;1.55;;;10.00;99.90;;;;;;6137750;23;20183;-69
2023/01/10 12:28:02;;;;;;;5.18;1.85;;;10.10;99.90;;;;;;6130383;23;20179;-69
2023/01/10 13:17:50;;;;;;;5.03;1.70;;;7.90;99.90;;;;;;5187956;23;20696;-73
2023/01/10 13:20:46;;;;;;;2.65;1.33;;;7.90;99.90;;;;;;4963672;28;20205;-71
2023/01/10 13:23:28;;;;;;;3.15;1.70;;;7.80;99.90;;;;;;4968402;28;20237;-74
2023/01/10 13:26:07;;;;;;;3.55;1.40;;;7.80;99.90;;;;;;4967838;28;20192;-74
2023/01/10 13:28:36;;;;;;;3.72;1.63;;;7.80;99.90;;;;;;4945031;28;20194;-74
2023/01/10 13:31:07;;;;;;;6.75;2.05;;;7.80;99.90;;;;;;4931795;28;20250;-73
2023/01/10 13:33:47;;;;;;;4.30;1.67;;;7.80;99.90;;;;;;4931799;28;20199;-72
2023/01/10 13:36:19;;;;;;;3.80;1.55;;;7.70;99.90;;;;;;4921491;28;20225;-75
2023/01/10 13:38:50;;;;;;;2.40;1.15;;;7.80;99.90;;;;;;4939326;28;20254;-75
2023/01/10 13:44:07;;;;;;;5.00;1.30;;;7.70;99.90;;;;;;4927354;28;21565;-75
2023/01/10 13:46:43;;;;;;;5.40;1.45;;;7.70;99.90;;;;;;4930288;28;20214;-75
2023/01/10 13:49:40;;;;;;;4.55;1.42;;;7.70;99.90;;;;;;4928477;28;20198;-75
2023/01/10 13:52:30;;;;;;;3.78;1.50;;;7.80;99.90;;;;;;4927101;28;20212;-76
2023/01/10 13:54:59;;;;;;;4.20;1.55;;;8.00;99.90;;;;;;4927497;28;20199;-76
2023/01/10 13:58:03;;;;;;;3.13;1.25;;;8.20;99.90;;;;;;4930443;28;20660;-75
2023/01/10 14:03:51;;;;;;;3.05;1.20;;;8.60;99.90;;;;;;4923196;28;20746;-75
2023/01/10 14:06:39;;;;;;;5.07;1.20;;;8.70;99.90;;;;;;4930666;28;20443;-76
2023/01/10 14:09:33;;;;;;;5.28;1.88;;;8.70;99.90;;;;;;4928122;28;20201;-76
2023/01/10 14:12:01;;;;;;;3.55;1.38;;;8.80;99.90;;;;;;4928575;28;20292;-75